sensor_id;sensor_type;location;lat;lon;timestamp;temperature;humidity
46976;DHT22;32724;51.094;6.996;2023-11-22T00:01:49;4.90;99.90
46976;DHT22;32724;51.094;6.996;2023-11-22T00:04:15;5.00;99.90
46976;DHT22;32724;51.094;6.996;2023-11-22T00:06:41;5.10;99.90
46976;DHT22;32724;51.094;6.996;2023-11-22T00:09:06;5.20;99.90
46976;DHT22;32724;51.094;6.996;2023-11-22T00:11:32;5.20;99.90
46976;DHT22;32724;51.094;6.996;2023-11-22T00:13:58;5.30;99.90
46976;DHT22;32724;51.094;6.996;2023-11-22T00:16:23;5.30;99.90
46976;DHT22;32724;51.094;6.996;2023-11-22T00:18:49;5.40;99.90
46976;DHT22;32724;51.094;6.996;2023-11-22T00:21:15;5.40;99.90
46976;DHT22;32724;51.094;6.996;2023-11-22T00:23:40;5.40;99.90
46976;DHT22;32724;51.094;6.996;2023-11-22T00:26:06;5.50;99.90
46976;DHT22;32724;51.094;6.996;2023-11-22T00:28:32;5.40;99.90
46976;DHT22;32724;51.094;6.996;2023-11-22T00:30:58;5.40;99.90
46976;DHT22;32724;51.094;6.996;2023-11-22T00:33:23;5.40;99.90
46976;DHT22;32724;51.094;6.996;2023-11-22T00:35:49;5.40;99.90
46976;DHT22;32724;51.094;6.996;2023-11-22T00:38:15;5.50;99.90
46976;DHT22;32724;51.094;6.996;2023-11-22T00:40:42;5.50;99.90
46976;DHT22;32724;51.094;6.996;2023-11-22T00:43:07;5.50;99.90
46976;DHT22;32724;51.094;6.996;2023-11-22T00:45:33;5.50;99.90
46976;DHT22;32724;51.094;6.996;2023-11-22T00:47:59;5.50;99.90
46976;DHT22;32724;51.094;6.996;2023-11-22T00:50:24;5.30;99.90
46976;DHT22;32724;51.094;6.996;2023-11-22T00:52:50;5.30;99.90
46976;DHT22;32724;51.094;6.996;2023-11-22T00:55:16;5.40;99.90
46976;DHT22;32724;51.094;6.996;2023-11-22T00:57:42;5.40;99.90
46976;DHT22;32724;51.094;6.996;2023-11-22T01:00:09;5.40;99.90
46976;DHT22;32724;51.094;6.996;2023-11-22T01:02:35;5.30;99.90
46976;DHT22;32724;51.094;6.996;2023-11-22T01:05:09;5.30;99.90
46976;DHT22;32724;51.094;6.996;2023-11-22T01:07:38;5.30;99.90
46976;DHT22;32724;51.094;6.996;2023-11-22T01:10:04;5.40;99.90
46976;DHT22;32724;51.094;6.996;2023-11-22T01:12:31;5.40;99.90
46976;DHT22;32724;51.094;6.996;2023-11-22T01:14:56;5.40;99.90
46976;DHT22;32724;51.094;6.996;2023-11-22T01:17:22;5.50;99.90
46976;DHT22;32724;51.094;6.996;2023-11-22T01:19:49;5.50;99.90
46976;DHT22;32724;51.094;6.996;2023-11-22T01:22:16;5.50;99.90
46976;DHT22;32724;51.094;6.996;2023-11-22T01:24:42;5.50;99.90
46976;DHT22;32724;51.094;6.996;2023-11-22T01:27:08;5.50;99.90
46976;DHT22;32724;51.094;6.996;2023-11-22T01:29:34;5.50;99.90
46976;DHT22;32724;51.094;6.996;2023-11-22T01:32:00;5.50;99.90
46976;DHT22;32724;51.094;6.996;2023-11-22T01:34:26;5.50;99.90
46976;DHT22;32724;51.094;6.996;2023-11-22T01:36:52;5.50;99.90
46976;DHT22;32724;51.094;6.996;2023-11-22T01:39:17;5.50;99.90
46976;DHT22;32724;51.094;6.996;2023-11-22T01:41:46;5.50;99.90
46976;DHT22;32724;51.094;6.996;2023-11-22T01:44:15;5.50;99.90
46976;DHT22;32724;51.094;6.996;2023-11-22T01:46:42;5.50;99.90
46976;DHT22;32724;51.094;6.996;2023-11-22T01:49:09;5.50;99.90
46976;DHT22;32724;51.094;6.996;2023-11-22T01:51:35;5.50;99.90
46976;DHT22;32724;51.094;6.996;2023-11-22T01:54:02;5.40;99.90
46976;DHT22;32724;51.094;6.996;2023-11-22T01:56:28;5.40;99.90
46976;DHT22;32724;51.094;6.996;2023-11-22T01:58:55;5.40;99.90
46976;DHT22;32724;51.094;6.996;2023-11-22T02:01:22;5.30;99.90
46976;DHT22;32724;51.094;6.996;2023-11-22T02:03:47;5.30;99.90
46976;DHT22;32724;51.094;6.996;2023-11-22T02:06:15;5.30;99.90
46976;DHT22;32724;51.094;6.996;2023-11-22T02:08:44;5.30;99.90
46976;DHT22;32724;51.094;6.996;2023-11-22T02:11:10;5.30;99.90
46976;DHT22;32724;51.094;6.996;2023-11-22T02:13:35;5.40;99.90
46976;DHT22;32724;51.094;6.996;2023-11-22T02:16:02;5.40;99.90
46976;DHT22;32724;51.094;6.996;2023-11-22T02:18:28;5.40;99.90
46976;DHT22;32724;51.094;6.996;2023-11-22T02:20:54;5.50;99.90
46976;DHT22;32724;51.094;6.996;2023-11-22T02:23:20;5.50;99.90
46976;DHT22;32724;51.094;6.996;2023-11-22T02:25:46;5.50;99.90
46976;DHT22;32724;51.094;6.996;2023-11-22T02:28:12;5.50;99.90
46976;DHT22;32724;51.094;6.996;2023-11-22T02:30:38;5.50;99.90
46976;DHT22;32724;51.094;6.996;2023-11-22T02:33:04;5.50;99.90
46976;DHT22;32724;51.094;6.996;2023-11-22T02:35:33;5.50;99.90
46976;DHT22;32724;51.094;6.996;2023-11-22T02:37:59;5.50;99.90
46976;DHT22;32724;51.094;6.996;2023-11-22T02:40:25;5.50;99.90
46976;DHT22;32724;51.094;6.996;2023-11-22T02:42:52;5.40;99.90
46976;DHT22;32724;51.094;6.996;2023-11-22T02:45:22;5.40;99.90
46976;DHT22;32724;51.094;6.996;2023-11-22T02:47:48;5.40;99.90
46976;DHT22;32724;51.094;6.996;2023-11-22T02:50:15;5.30;99.90
46976;DHT22;32724;51.094;6.996;2023-11-22T02:52:41;5.30;99.90
46976;DHT22;32724;51.094;6.996;2023-11-22T02:55:08;5.40;99.90
46976;DHT22;32724;51.094;6.996;2023-11-22T02:57:37;5.10;99.90
46976;DHT22;32724;51.094;6.996;2023-11-22T03:00:07;5.10;99.90
46976;DHT22;32724;51.094;6.996;2023-11-22T03:02:34;5.00;99.90
46976;DHT22;32724;51.094;6.996;2023-11-22T03:04:59;4.90;99.90
46976;DHT22;32724;51.094;6.996;2023-11-22T03:07:26;4.90;99.90
46976;DHT22;32724;51.094;6.996;2023-11-22T03:09:51;4.80;99.90
46976;DHT22;32724;51.094;6.996;2023-11-22T03:12:18;4.80;99.90
46976;DHT22;32724;51.094;6.996;2023-11-22T03:14:46;4.80;99.90
46976;DHT22;32724;51.094;6.996;2023-11-22T03:17:11;4.60;99.90
46976;DHT22;32724;51.094;6.996;2023-11-22T03:19:39;4.50;99.90
46976;DHT22;32724;51.094;6.996;2023-11-22T03:22:05;4.30;99.90
46976;DHT22;32724;51.094;6.996;2023-11-22T03:24:32;4.10;99.90
46976;DHT22;32724;51.094;6.996;2023-11-22T03:27:00;4.00;99.90
46976;DHT22;32724;51.094;6.996;2023-11-22T03:29:26;4.00;99.90
46976;DHT22;32724;51.094;6.996;2023-11-22T03:31:53;3.90;99.90
46976;DHT22;32724;51.094;6.996;2023-11-22T03:34:19;3.90;99.90
46976;DHT22;32724;51.094;6.996;2023-11-22T03:36:44;3.80;99.90
46976;DHT22;32724;51.094;6.996;2023-11-22T03:39:10;3.70;99.90
46976;DHT22;32724;51.094;6.996;2023-11-22T03:41:36;3.70;99.90
46976;DHT22;32724;51.094;6.996;2023-11-22T03:44:03;3.60;99.90
46976;DHT22;32724;51.094;6.996;2023-11-22T03:46:29;3.60;99.90
46976;DHT22;32724;51.094;6.996;2023-11-22T03:48:55;3.70;99.90
46976;DHT22;32724;51.094;6.996;2023-11-22T03:51:21;3.80;99.90
46976;DHT22;32724;51.094;6.996;2023-11-22T03:53:46;3.80;99.90
46976;DHT22;32724;51.094;6.996;2023-11-22T03:56:12;3.80;99.90
46976;DHT22;32724;51.094;6.996;2023-11-22T03:58:37;3.80;99.90
46976;DHT22;32724;51.094;6.996;2023-11-22T04:01:03;3.70;99.90
46976;DHT22;32724;51.094;6.996;2023-11-22T04:03:28;3.70;99.90
46976;DHT22;32724;51.094;6.996;2023-11-22T04:05:54;3.70;99.90
46976;DHT22;32724;51.094;6.996;2023-11-22T04:08:19;3.60;99.90
46976;DHT22;32724;51.094;6.996;2023-11-22T04:10:45;3.70;99.90
46976;DHT22;32724;51.094;6.996;2023-11-22T04:13:11;3.70;99.90
46976;DHT22;32724;51.094;6.996;2023-11-22T04:15:36;4.00;99.90
46976;DHT22;32724;51.094;6.996;2023-11-22T04:18:02;3.70;99.90
46976;DHT22;32724;51.094;6.996;2023-11-22T04:20:27;3.60;99.90
46976;DHT22;32724;51.094;6.996;2023-11-22T04:22:53;3.60;99.90
46976;DHT22;32724;51.094;6.996;2023-11-22T04:25:18;3.50;99.90
46976;DHT22;32724;51.094;6.996;2023-11-22T04:27:44;3.50;99.90
46976;DHT22;32724;51.094;6.996;2023-11-22T04:30:10;3.40;99.90
46976;DHT22;32724;51.094;6.996;2023-11-22T04:32:43;3.30;99.90
46976;DHT22;32724;51.094;6.996;2023-11-22T04:35:09;3.30;99.90
46976;DHT22;32724;51.094;6.996;2023-11-22T04:37:36;3.30;99.90
46976;DHT22;32724;51.094;6.996;2023-11-22T04:40:02;3.20;99.90
46976;DHT22;32724;51.094;6.996;2023-11-22T04:42:29;3.10;99.90
46976;DHT22;32724;51.094;6.996;2023-11-22T04:44:54;3.10;99.90
46976;DHT22;32724;51.094;6.996;2023-11-22T04:47:20;3.00;99.90
46976;DHT22;32724;51.094;6.996;2023-11-22T04:49:47;3.00;99.90
46976;DHT22;32724;51.094;6.996;2023-11-22T04:52:13;3.00;99.90
46976;DHT22;32724;51.094;6.996;2023-11-22T04:54:39;3.10;99.90
46976;DHT22;32724;51.094;6.996;2023-11-22T04:57:05;3.20;99.90
46976;DHT22;32724;51.094;6.996;2023-11-22T04:59:31;3.10;99.90
46976;DHT22;32724;51.094;6.996;2023-11-22T05:01:57;3.00;99.90
46976;DHT22;32724;51.094;6.996;2023-11-22T05:04:23;3.00;99.90
46976;DHT22;32724;51.094;6.996;2023-11-22T05:06:48;2.90;99.90
46976;DHT22;32724;51.094;6.996;2023-11-22T05:09:14;3.00;99.90
46976;DHT22;32724;51.094;6.996;2023-11-22T05:11:40;3.10;99.90
46976;DHT22;32724;51.094;6.996;2023-11-22T05:14:10;3.10;99.90
46976;DHT22;32724;51.094;6.996;2023-11-22T05:16:38;3.30;99.90
46976;DHT22;32724;51.094;6.996;2023-11-22T05:19:04;3.30;99.90
46976;DHT22;32724;51.094;6.996;2023-11-22T05:21:29;3.30;99.90
46976;DHT22;32724;51.094;6.996;2023-11-22T05:23:55;3.40;99.90
46976;DHT22;32724;51.094;6.996;2023-11-22T05:26:21;3.50;99.90
46976;DHT22;32724;51.094;6.996;2023-11-22T05:28:47;3.30;99.90
46976;DHT22;32724;51.094;6.996;2023-11-22T05:31:13;3.10;99.90
46976;DHT22;32724;51.094;6.996;2023-11-22T05:33:39;3.00;99.90
46976;DHT22;32724;51.094;6.996;2023-11-22T05:36:06;2.90;99.90
46976;DHT22;32724;51.094;6.996;2023-11-22T05:38:31;2.90;99.90
46976;DHT22;32724;51.094;6.996;2023-11-22T05:40:59;2.80;99.90
46976;DHT22;32724;51.094;6.996;2023-11-22T05:43:25;2.90;99.90
46976;DHT22;32724;51.094;6.996;2023-11-22T05:45:53;2.90;99.90
46976;DHT22;32724;51.094;6.996;2023-11-22T05:48:18;2.80;99.90
46976;DHT22;32724;51.094;6.996;2023-11-22T05:50:47;2.90;99.90
46976;DHT22;32724;51.094;6.996;2023-11-22T05:53:13;2.90;99.90
46976;DHT22;32724;51.094;6.996;2023-11-22T05:55:48;2.90;99.90
46976;DHT22;32724;51.094;6.996;2023-11-22T05:58:14;2.90;99.90
46976;DHT22;32724;51.094;6.996;2023-11-22T06:00:46;2.90;99.90
46976;DHT22;32724;51.094;6.996;2023-11-22T06:03:12;2.90;99.90
46976;DHT22;32724;51.094;6.996;2023-11-22T06:05:41;2.80;99.90
46976;DHT22;32724;51.094;6.996;2023-11-22T06:08:06;2.80;99.90
46976;DHT22;32724;51.094;6.996;2023-11-22T06:10:32;2.70;99.90
46976;DHT22;32724;51.094;6.996;2023-11-22T06:12:59;2.70;99.90
46976;DHT22;32724;51.094;6.996;2023-11-22T06:15:24;2.70;99.90
46976;DHT22;32724;51.094;6.996;2023-11-22T06:17:50;2.60;99.90
46976;DHT22;32724;51.094;6.996;2023-11-22T06:20:15;2.60;99.90
46976;DHT22;32724;51.094;6.996;2023-11-22T06:22:41;2.60;99.90
46976;DHT22;32724;51.094;6.996;2023-11-22T06:25:11;2.60;99.90
46976;DHT22;32724;51.094;6.996;2023-11-22T06:27:37;2.60;99.90
46976;DHT22;32724;51.094;6.996;2023-11-22T06:30:04;2.80;99.90
46976;DHT22;32724;51.094;6.996;2023-11-22T06:32:29;2.80;99.90
46976;DHT22;32724;51.094;6.996;2023-11-22T06:34:55;2.70;99.90
46976;DHT22;32724;51.094;6.996;2023-11-22T06:37:20;2.70;99.90
46976;DHT22;32724;51.094;6.996;2023-11-22T06:39:46;2.70;99.90
46976;DHT22;32724;51.094;6.996;2023-11-22T06:42:12;2.70;99.90
46976;DHT22;32724;51.094;6.996;2023-11-22T06:44:42;2.60;99.90
46976;DHT22;32724;51.094;6.996;2023-11-22T06:47:07;2.50;99.90
46976;DHT22;32724;51.094;6.996;2023-11-22T06:49:35;2.40;99.90
46976;DHT22;32724;51.094;6.996;2023-11-22T06:52:01;2.30;99.90
46976;DHT22;32724;51.094;6.996;2023-11-22T06:54:27;2.30;99.90
46976;DHT22;32724;51.094;6.996;2023-11-22T06:56:53;2.20;99.90
46976;DHT22;32724;51.094;6.996;2023-11-22T06:59:19;2.10;99.90
46976;DHT22;32724;51.094;6.996;2023-11-22T07:01:45;2.00;99.90
46976;DHT22;32724;51.094;6.996;2023-11-22T07:04:11;1.90;99.90
46976;DHT22;32724;51.094;6.996;2023-11-22T07:06:37;1.90;99.90
46976;DHT22;32724;51.094;6.996;2023-11-22T07:09:04;1.80;99.90
46976;DHT22;32724;51.094;6.996;2023-11-22T07:11:30;1.80;99.90
46976;DHT22;32724;51.094;6.996;2023-11-22T07:13:56;1.80;99.90
46976;DHT22;32724;51.094;6.996;2023-11-22T07:16:23;1.80;99.90
46976;DHT22;32724;51.094;6.996;2023-11-22T07:18:51;1.80;99.90
46976;DHT22;32724;51.094;6.996;2023-11-22T07:21:17;1.70;99.90
46976;DHT22;32724;51.094;6.996;2023-11-22T07:23:43;1.70;99.90
46976;DHT22;32724;51.094;6.996;2023-11-22T07:26:10;1.70;99.90
46976;DHT22;32724;51.094;6.996;2023-11-22T07:28:36;1.70;99.90
46976;DHT22;32724;51.094;6.996;2023-11-22T07:31:12;1.70;99.90
46976;DHT22;32724;51.094;6.996;2023-11-22T07:33:38;1.90;99.90
46976;DHT22;32724;51.094;6.996;2023-11-22T07:36:07;1.80;99.90
46976;DHT22;32724;51.094;6.996;2023-11-22T07:38:33;1.80;99.90
46976;DHT22;32724;51.094;6.996;2023-11-22T07:40:59;1.70;99.90
46976;DHT22;32724;51.094;6.996;2023-11-22T07:43:27;1.70;99.90
46976;DHT22;32724;51.094;6.996;2023-11-22T07:45:56;1.70;99.90
46976;DHT22;32724;51.094;6.996;2023-11-22T07:48:33;1.80;99.90
46976;DHT22;32724;51.094;6.996;2023-11-22T07:50:59;1.90;99.90
46976;DHT22;32724;51.094;6.996;2023-11-22T07:53:27;2.00;99.90
46976;DHT22;32724;51.094;6.996;2023-11-22T07:55:57;2.10;99.90
46976;DHT22;32724;51.094;6.996;2023-11-22T07:58:26;2.20;99.90
46976;DHT22;32724;51.094;6.996;2023-11-22T08:00:52;2.40;99.90
46976;DHT22;32724;51.094;6.996;2023-11-22T08:03:21;2.50;99.90
46976;DHT22;32724;51.094;6.996;2023-11-22T08:05:54;2.60;99.90
46976;DHT22;32724;51.094;6.996;2023-11-22T08:08:22;2.70;99.90
46976;DHT22;32724;51.094;6.996;2023-11-22T08:10:51;2.80;99.90
46976;DHT22;32724;51.094;6.996;2023-11-22T08:13:20;2.90;99.90
46976;DHT22;32724;51.094;6.996;2023-11-22T08:15:54;3.00;99.90
46976;DHT22;32724;51.094;6.996;2023-11-22T08:18:20;3.10;99.90
46976;DHT22;32724;51.094;6.996;2023-11-22T08:20:48;3.20;99.90
46976;DHT22;32724;51.094;6.996;2023-11-22T08:23:17;3.20;99.90
46976;DHT22;32724;51.094;6.996;2023-11-22T08:25:43;3.20;99.90
46976;DHT22;32724;51.094;6.996;2023-11-22T08:28:10;3.30;99.90
46976;DHT22;32724;51.094;6.996;2023-11-22T08:30:36;3.20;99.90
46976;DHT22;32724;51.094;6.996;2023-11-22T08:33:02;3.30;99.90
46976;DHT22;32724;51.094;6.996;2023-11-22T08:35:28;3.40;99.90
46976;DHT22;32724;51.094;6.996;2023-11-22T08:37:54;3.40;99.90
46976;DHT22;32724;51.094;6.996;2023-11-22T08:40:23;3.40;99.90
46976;DHT22;32724;51.094;6.996;2023-11-22T08:42:49;3.50;99.90
46976;DHT22;32724;51.094;6.996;2023-11-22T08:45:18;3.50;99.90
46976;DHT22;32724;51.094;6.996;2023-11-22T08:47:44;3.50;99.90
46976;DHT22;32724;51.094;6.996;2023-11-22T08:50:11;3.50;99.90
46976;DHT22;32724;51.094;6.996;2023-11-22T08:52:40;3.60;99.90
46976;DHT22;32724;51.094;6.996;2023-11-22T08:55:08;3.60;99.90
46976;DHT22;32724;51.094;6.996;2023-11-22T08:57:38;3.60;99.90
46976;DHT22;32724;51.094;6.996;2023-11-22T09:00:04;3.70;99.90
46976;DHT22;32724;51.094;6.996;2023-11-22T09:02:40;3.80;99.90
46976;DHT22;32724;51.094;6.996;2023-11-22T09:05:07;3.90;99.90
46976;DHT22;32724;51.094;6.996;2023-11-22T09:07:38;4.00;99.90
46976;DHT22;32724;51.094;6.996;2023-11-22T09:10:05;4.10;99.90
46976;DHT22;32724;51.094;6.996;2023-11-22T09:12:40;4.10;99.90
46976;DHT22;32724;51.094;6.996;2023-11-22T09:15:13;4.10;99.90
46976;DHT22;32724;51.094;6.996;2023-11-22T09:17:46;4.30;99.90
46976;DHT22;32724;51.094;6.996;2023-11-22T09:20:13;4.50;99.90
46976;DHT22;32724;51.094;6.996;2023-11-22T09:22:43;4.50;99.90
46976;DHT22;32724;51.094;6.996;2023-11-22T09:25:15;4.50;99.90
46976;DHT22;32724;51.094;6.996;2023-11-22T09:27:51;4.60;99.90
46976;DHT22;32724;51.094;6.996;2023-11-22T09:30:20;4.80;99.90
46976;DHT22;32724;51.094;6.996;2023-11-22T09:33:15;4.90;99.90
46976;DHT22;32724;51.094;6.996;2023-11-22T09:35:43;5.10;99.90
46976;DHT22;32724;51.094;6.996;2023-11-22T09:38:10;5.20;99.90
46976;DHT22;32724;51.094;6.996;2023-11-22T09:40:48;5.30;99.90
46976;DHT22;32724;51.094;6.996;2023-11-22T09:43:19;5.30;99.90
46976;DHT22;32724;51.094;6.996;2023-11-22T09:45:47;5.30;99.90
46976;DHT22;32724;51.094;6.996;2023-11-22T09:48:18;5.50;99.90
46976;DHT22;32724;51.094;6.996;2023-11-22T09:56:13;6.00;99.90
46976;DHT22;32724;51.094;6.996;2023-11-22T09:58:41;6.10;99.90
46976;DHT22;32724;51.094;6.996;2023-11-22T10:01:15;6.20;99.90
46976;DHT22;32724;51.094;6.996;2023-11-22T10:03:45;6.40;99.90
46976;DHT22;32724;51.094;6.996;2023-11-22T10:06:11;6.50;99.90
46976;DHT22;32724;51.094;6.996;2023-11-22T10:08:39;6.60;99.90
46976;DHT22;32724;51.094;6.996;2023-11-22T10:11:07;6.60;99.90
46976;DHT22;32724;51.094;6.996;2023-11-22T10:13:33;6.60;99.90
46976;DHT22;32724;51.094;6.996;2023-11-22T10:16:14;6.70;99.90
46976;DHT22;32724;51.094;6.996;2023-11-22T10:18:44;6.80;99.90
46976;DHT22;32724;51.094;6.996;2023-11-22T10:21:25;6.80;99.90
46976;DHT22;32724;51.094;6.996;2023-11-22T10:23:54;6.90;99.90
46976;DHT22;32724;51.094;6.996;2023-11-22T10:26:22;6.90;99.90
46976;DHT22;32724;51.094;6.996;2023-11-22T10:28:51;7.00;99.90
46976;DHT22;32724;51.094;6.996;2023-11-22T10:31:18;7.00;99.90
46976;DHT22;32724;51.094;6.996;2023-11-22T10:33:44;7.00;99.90
46976;DHT22;32724;51.094;6.996;2023-11-22T10:36:10;6.90;99.90
46976;DHT22;32724;51.094;6.996;2023-11-22T10:38:38;6.90;99.90
46976;DHT22;32724;51.094;6.996;2023-11-22T10:41:10;6.90;99.90
46976;DHT22;32724;51.094;6.996;2023-11-22T10:43:37;6.90;99.90
46976;DHT22;32724;51.094;6.996;2023-11-22T10:46:03;6.70;99.90
46976;DHT22;32724;51.094;6.996;2023-11-22T10:48:36;6.30;99.90
46976;DHT22;32724;51.094;6.996;2023-11-22T10:51:03;6.10;99.90
46976;DHT22;32724;51.094;6.996;2023-11-22T10:53:45;6.00;99.90
46976;DHT22;32724;51.094;6.996;2023-11-22T10:56:17;6.20;99.90
46976;DHT22;32724;51.094;6.996;2023-11-22T10:58:57;6.40;99.90
46976;DHT22;32724;51.094;6.996;2023-11-22T11:01:25;6.60;99.90
46976;DHT22;32724;51.094;6.996;2023-11-22T11:04:00;6.70;99.90
46976;DHT22;32724;51.094;6.996;2023-11-22T11:06:31;6.80;99.90
46976;DHT22;32724;51.094;6.996;2023-11-22T11:09:00;6.80;99.90
46976;DHT22;32724;51.094;6.996;2023-11-22T11:11:28;6.90;99.90
46976;DHT22;32724;51.094;6.996;2023-11-22T11:13:55;7.00;99.90
46976;DHT22;32724;51.094;6.996;2023-11-22T11:16:23;7.20;99.90
46976;DHT22;32724;51.094;6.996;2023-11-22T11:18:50;7.40;99.90
46976;DHT22;32724;51.094;6.996;2023-11-22T11:21:16;7.40;99.90
46976;DHT22;32724;51.094;6.996;2023-11-22T11:23:44;7.40;99.90
46976;DHT22;32724;51.094;6.996;2023-11-22T11:26:15;7.40;99.90
46976;DHT22;32724;51.094;6.996;2023-11-22T11:28:48;7.40;99.90
46976;DHT22;32724;51.094;6.996;2023-11-22T11:31:14;7.40;99.90
46976;DHT22;32724;51.094;6.996;2023-11-22T11:38:52;7.40;99.90
46976;DHT22;32724;51.094;6.996;2023-11-22T11:41:18;7.40;99.90
46976;DHT22;32724;51.094;6.996;2023-11-22T11:43:45;7.50;99.90
46976;DHT22;32724;51.094;6.996;2023-11-22T11:46:11;7.50;99.90
46976;DHT22;32724;51.094;6.996;2023-11-22T11:48:37;7.50;99.90
46976;DHT22;32724;51.094;6.996;2023-11-22T11:51:03;7.50;99.90
46976;DHT22;32724;51.094;6.996;2023-11-22T11:53:28;7.50;99.90
46976;DHT22;32724;51.094;6.996;2023-11-22T11:55:57;7.60;99.90
46976;DHT22;32724;51.094;6.996;2023-11-22T11:58:23;7.60;99.90
46976;DHT22;32724;51.094;6.996;2023-11-22T12:00:51;7.60;99.90
46976;DHT22;32724;51.094;6.996;2023-11-22T12:03:18;7.70;99.90
46976;DHT22;32724;51.094;6.996;2023-11-22T12:05:47;7.80;99.90
46976;DHT22;32724;51.094;6.996;2023-11-22T12:08:13;7.80;99.90
46976;DHT22;32724;51.094;6.996;2023-11-22T12:10:43;7.90;99.90
46976;DHT22;32724;51.094;6.996;2023-11-22T12:13:09;8.00;99.90
46976;DHT22;32724;51.094;6.996;2023-11-22T12:15:35;8.00;99.90
46976;DHT22;32724;51.094;6.996;2023-11-22T12:18:03;7.90;99.90
46976;DHT22;32724;51.094;6.996;2023-11-22T12:20:30;7.80;99.90
46976;DHT22;32724;51.094;6.996;2023-11-22T12:22:58;7.20;99.90
46976;DHT22;32724;51.094;6.996;2023-11-22T12:25:30;6.60;99.90
46976;DHT22;32724;51.094;6.996;2023-11-22T12:27:56;6.30;99.90
46976;DHT22;32724;51.094;6.996;2023-11-22T12:30:33;6.10;99.90
46976;DHT22;32724;51.094;6.996;2023-11-22T12:33:05;5.90;99.90
46976;DHT22;32724;51.094;6.996;2023-11-22T12:35:32;5.80;99.90
46976;DHT22;32724;51.094;6.996;2023-11-22T12:38:00;5.90;99.90
46976;DHT22;32724;51.094;6.996;2023-11-22T12:40:29;6.00;99.90
46976;DHT22;32724;51.094;6.996;2023-11-22T12:42:57;6.20;99.90
46976;DHT22;32724;51.094;6.996;2023-11-22T12:45:24;6.20;99.90
46976;DHT22;32724;51.094;6.996;2023-11-22T12:47:50;6.30;99.90
46976;DHT22;32724;51.094;6.996;2023-11-22T12:50:36;6.40;99.90
46976;DHT22;32724;51.094;6.996;2023-11-22T12:53:11;6.40;99.90
46976;DHT22;32724;51.094;6.996;2023-11-22T12:55:41;6.40;99.90
46976;DHT22;32724;51.094;6.996;2023-11-22T12:58:07;6.50;99.90
46976;DHT22;32724;51.094;6.996;2023-11-22T13:00:33;6.50;99.90
46976;DHT22;32724;51.094;6.996;2023-11-22T13:02:59;6.50;99.90
46976;DHT22;32724;51.094;6.996;2023-11-22T13:05:25;6.50;99.90
46976;DHT22;32724;51.094;6.996;2023-11-22T13:07:50;6.50;99.90
46976;DHT22;32724;51.094;6.996;2023-11-22T13:10:17;6.60;99.90
46976;DHT22;32724;51.094;6.996;2023-11-22T13:12:45;6.60;99.90
46976;DHT22;32724;51.094;6.996;2023-11-22T13:15:12;6.60;99.90
46976;DHT22;32724;51.094;6.996;2023-11-22T13:17:39;6.60;99.90
46976;DHT22;32724;51.094;6.996;2023-11-22T13:20:08;6.70;99.90
46976;DHT22;32724;51.094;6.996;2023-11-22T13:22:42;6.70;99.90
46976;DHT22;32724;51.094;6.996;2023-11-22T13:25:10;6.80;99.90
46976;DHT22;32724;51.094;6.996;2023-11-22T13:27:36;6.80;99.90
46976;DHT22;32724;51.094;6.996;2023-11-22T13:30:03;6.70;99.90
46976;DHT22;32724;51.094;6.996;2023-11-22T13:32:30;6.70;99.90
46976;DHT22;32724;51.094;6.996;2023-11-22T13:34:56;6.70;99.90
46976;DHT22;32724;51.094;6.996;2023-11-22T13:37:26;6.70;99.90
46976;DHT22;32724;51.094;6.996;2023-11-22T13:39:52;6.70;99.90
46976;DHT22;32724;51.094;6.996;2023-11-22T13:42:18;6.70;99.90
46976;DHT22;32724;51.094;6.996;2023-11-22T13:44:44;6.80;99.90
46976;DHT22;32724;51.094;6.996;2023-11-22T13:47:10;6.80;99.90
46976;DHT22;32724;51.094;6.996;2023-11-22T13:49:36;6.90;99.90
46976;DHT22;32724;51.094;6.996;2023-11-22T13:52:02;7.00;99.90
46976;DHT22;32724;51.094;6.996;2023-11-22T13:54:28;6.70;99.90
46976;DHT22;32724;51.094;6.996;2023-11-22T13:56:54;6.20;99.90
46976;DHT22;32724;51.094;6.996;2023-11-22T13:59:19;6.10;99.90
46976;DHT22;32724;51.094;6.996;2023-11-22T14:01:45;6.10;99.90
46976;DHT22;32724;51.094;6.996;2023-11-22T14:04:11;6.20;99.90
46976;DHT22;32724;51.094;6.996;2023-11-22T14:06:36;6.10;99.90
46976;DHT22;32724;51.094;6.996;2023-11-22T14:09:02;6.00;99.90
46976;DHT22;32724;51.094;6.996;2023-11-22T14:11:28;5.80;99.90
46976;DHT22;32724;51.094;6.996;2023-11-22T14:13:53;5.70;99.90
46976;DHT22;32724;51.094;6.996;2023-11-22T14:16:19;5.40;99.90
46976;DHT22;32724;51.094;6.996;2023-11-22T14:18:44;5.40;99.90
46976;DHT22;32724;51.094;6.996;2023-11-22T14:21:10;5.60;99.90
46976;DHT22;32724;51.094;6.996;2023-11-22T14:23:36;5.80;99.90
46976;DHT22;32724;51.094;6.996;2023-11-22T14:26:02;6.00;99.90
46976;DHT22;32724;51.094;6.996;2023-11-22T14:28:28;6.10;99.90
46976;DHT22;32724;51.094;6.996;2023-11-22T14:30:54;6.10;99.90
46976;DHT22;32724;51.094;6.996;2023-11-22T14:33:20;6.20;99.90
46976;DHT22;32724;51.094;6.996;2023-11-22T14:35:46;6.20;99.90
46976;DHT22;32724;51.094;6.996;2023-11-22T14:38:12;6.20;99.90
46976;DHT22;32724;51.094;6.996;2023-11-22T14:40:39;6.30;99.90
46976;DHT22;32724;51.094;6.996;2023-11-22T14:43:05;6.30;99.90
46976;DHT22;32724;51.094;6.996;2023-11-22T14:45:31;6.20;99.90
46976;DHT22;32724;51.094;6.996;2023-11-22T14:47:58;6.20;99.90
46976;DHT22;32724;51.094;6.996;2023-11-22T14:50:24;6.10;99.90
46976;DHT22;32724;51.094;6.996;2023-11-22T14:52:52;6.10;99.90
46976;DHT22;32724;51.094;6.996;2023-11-22T14:55:18;6.10;99.90
46976;DHT22;32724;51.094;6.996;2023-11-22T14:57:46;6.10;99.90
46976;DHT22;32724;51.094;6.996;2023-11-22T15:00:15;6.10;99.90
46976;DHT22;32724;51.094;6.996;2023-11-22T15:02:41;6.00;99.90
46976;DHT22;32724;51.094;6.996;2023-11-22T15:05:11;6.00;99.90
46976;DHT22;32724;51.094;6.996;2023-11-22T15:07:38;6.00;99.90
46976;DHT22;32724;51.094;6.996;2023-11-22T15:10:08;5.90;99.90
46976;DHT22;32724;51.094;6.996;2023-11-22T15:12:35;5.80;99.90
46976;DHT22;32724;51.094;6.996;2023-11-22T15:15:01;5.80;99.90
46976;DHT22;32724;51.094;6.996;2023-11-22T15:17:27;5.80;99.90
46976;DHT22;32724;51.094;6.996;2023-11-22T15:19:53;5.70;99.90
46976;DHT22;32724;51.094;6.996;2023-11-22T15:22:19;5.70;99.90
46976;DHT22;32724;51.094;6.996;2023-11-22T15:24:44;5.70;99.90
46976;DHT22;32724;51.094;6.996;2023-11-22T15:27:10;5.70;99.90
46976;DHT22;32724;51.094;6.996;2023-11-22T15:29:35;5.70;99.90
46976;DHT22;32724;51.094;6.996;2023-11-22T15:32:01;5.60;99.90
46976;DHT22;32724;51.094;6.996;2023-11-22T15:34:28;5.20;99.90
46976;DHT22;32724;51.094;6.996;2023-11-22T15:36:53;5.20;99.90
46976;DHT22;32724;51.094;6.996;2023-11-22T15:39:19;5.20;99.90
46976;DHT22;32724;51.094;6.996;2023-11-22T15:41:47;5.10;99.90
46976;DHT22;32724;51.094;6.996;2023-11-22T15:44:13;5.10;99.90
46976;DHT22;32724;51.094;6.996;2023-11-22T15:46:40;5.10;99.90
46976;DHT22;32724;51.094;6.996;2023-11-22T15:49:07;5.20;99.90
46976;DHT22;32724;51.094;6.996;2023-11-22T15:51:33;5.20;99.90
46976;DHT22;32724;51.094;6.996;2023-11-22T15:53:59;5.30;99.90
46976;DHT22;32724;51.094;6.996;2023-11-22T15:56:25;5.40;99.90